Aérodrome :
LOGIN :

S'inscrire | Disclaimer

   EN    FR    IT 

 










Légende :    VFR   VFR Marginal   IFR   IFR Intensif   IFR Très Intensif
Visi : 
Plafond : 
>= 8 km
>= 3000ft
5 à 8 km
1000 à 3000 ft
1500m à 5 km
500 à 1000 ft
800 à 1500m
200 à 500 ft
< 800m
< 200 ft
Symboles :   Orages  Brouillard  Fortes neiges  Fortes précipitations  Vent > 20 kt
SIGMETs :   Divers  Orages  Givrage  Turbulence  Onde Orograph.  Cendres Volcan.







- Altitude de l'aérodrome : 144 ft
- Code IATA : PGF
- Voir les cartes d'approche


LFMP - Perpignan

DERNIER METAR :
  • 211200Z AUTO 11006KT 020V160 9999 FEW066/// 33/18 Q1016 BECMG 32012KT

METARs EXPIRÉS :
  • 211130Z AUTO 11005KT 070V180 9999 FEW066 33/18 Q1017 BECMG 32012KT
  • 211100Z AUTO VRB06KT CAVOK 32/18 Q1017 NOSIG
  • 211030Z AUTO VRB03KT CAVOK 32/19 Q1017 NOSIG
  • 211000Z AUTO 07005KT 020V140 CAVOK 31/18 Q1017 BECMG 32012KT
  • 210930Z AUTO 11003KT 040V200 CAVOK 30/17 Q1017 BECMG 32012KT

TAF TAF LFMP
Valide du 21 à 09h jusqu'au 22 à 09h UTC


210800Z 2109/2209 VRB03KT CAVOK
BECMG 2109/2111 32012KT FEW030
TEMPO 2115/2121 FEW030CB
BECMG 2201/2203 30020G30KT CAVOK
ATIS : +33 4 68 63 75 12
Pas de NOTAMs connus pour ce terrain.



MET'MAP, la Météo Aéronautique d'un coup d'oeil ! - Copyright ORBIFLY Décembre 2007 - Disclaimer

ORBIFLY MET'MAP TEAM :

Programmation & Développement : Alexandra Zaïnal
Conception & Développement : Baudouin d'Aumeries
Co-Programmation & Développement : Marc-Olivier Méhu
Soutien technique & logistique : Manuel Goepfert

Contact : metmap@orbifly.com




SOURCES & CREDITS :

   NOAA